Cleveland Municipal Airport, MS

12:28 PM CDT on March 26, 2017 (GMT -0500)
Cleveland Municipal

Weather History for KRNV - January, 2014

Change the Weather History Date:

Tuesday, January 21, 2014

  Actual Average (KGLH) Record (KGLH)
Temperature  
Mean Temperature 38 °F -  
Max Temperature 51 °F 49 °F 77 °F (1933)
Min Temperature 23 °F 31 °F 13 °F (1984)
Degree Days  
Heating Degree Days 28    
Moisture  
Dew Point 22 °F    
Average Humidity 59    
Maximum Humidity 77    
Minimum Humidity 49    
Precipitation  
Precipitation 0.00 in - - ()
Sea Level Pressure  
Sea Level Pressure 30.18 in    
Wind  
Wind Speed 15 mph (North)    
Max Wind Speed 28 mph    
Max Gust Speed 36 mph    
Visibility 10 miles    
Events      
Averages and records for this station are not official NWS values.
T = Trace of Precipitation, MM = Missing Value Source: NWS Daily Summary

Daily Weather History Graph

Daily Weather History Graph

Search for Another Location

Airport or City:

Trip Planner

Search our weather history database for the weather conditions in past years. The results will help you decide how hot, cold, wet, or windy it might be!

Date:

Astronomy

Jan. 21, 2014 Rise Set
Actual Time 7:05 AM CST 5:23 PM CST
Civil Twilight 6:39 AM CST 5:50 PM CST
Nautical Twilight 6:08 AM CST 6:20 PM CST
Astronomical Twilight 5:38 AM CST 6:50 PM CST
Moon 10:38 PM CST (1/21) 9:52 AM CST (1/21)
Length of Visible Light 11h 11m
Length of Day
10h 17m
Waning Gibbous, 74% of the Moon is Illuminated
Jan 21
Waning Gibbous
Jan 23
Last Quarter
Jan 30
New
Feb 6
First Quarter
Feb 14
Full

Hourly Weather History & Observations

Time (CST) Temp. Windchill Dew Point Humidity Pressure Visibility Wind Dir Wind Speed Gust Speed Precip Events Conditions
12:15 AM 51.4 °F - 33.6 °F 51% 29.94 in 10.0 mi North 18.4 mph 27.6 mph N/A   Clear
12:35 AM 50.9 °F - 32.4 °F 49% 29.95 in 10.0 mi North 19.6 mph 25.3 mph N/A   Clear
12:55 AM 50.0 °F - 32.0 °F 50% 29.95 in 10.0 mi North 15.0 mph - N/A   Clear
1:15 AM 48.0 °F - 32.4 °F 55% 29.97 in 10.0 mi NNW 10.4 mph - N/A   Clear
1:35 AM 47.8 °F - 32.2 °F 55% 29.97 in 10.0 mi NNW 15.0 mph - N/A   Clear
1:55 AM 47.5 °F - 32.2 °F 55% 29.99 in 10.0 mi NNW 15.0 mph 20.7 mph N/A   Clear
2:15 AM 46.8 °F - 32.2 °F 57% 30.00 in 10.0 mi NNW 9.2 mph 17.3 mph N/A   Clear
2:35 AM 44.2 °F 41.8 °F 32.5 °F 63% 30.01 in 10.0 mi NNW 4.6 mph - N/A   Clear
2:55 AM 44.4 °F 39.0 °F 32.4 °F 63% 30.01 in 10.0 mi NNW 10.4 mph - N/A   Clear
3:15 AM 44.6 °F 38.8 °F 31.6 °F 60% 30.02 in 10.0 mi NNW 11.5 mph - N/A   Clear
3:35 AM 44.1 °F 39.0 °F 29.5 °F 57% 30.02 in 10.0 mi NW 9.2 mph - N/A   Clear
3:55 AM 43.2 °F 38.4 °F 28.9 °F 57% 30.02 in 10.0 mi NW 8.1 mph - N/A   Clear
4:15 AM 41.4 °F 37.6 °F 28.4 °F 60% 30.03 in 10.0 mi WNW 5.8 mph - N/A   Clear
4:35 AM 39.2 °F 33.6 °F 28.0 °F 64% 30.03 in 10.0 mi WNW 8.1 mph - N/A   Clear
4:55 AM 40.1 °F 36.1 °F 27.5 °F 61% 30.04 in 10.0 mi NW 5.8 mph - N/A   Clear
5:15 AM 38.5 °F 34.1 °F 27.9 °F 66% 30.04 in 10.0 mi WNW 5.8 mph - N/A   Clear
5:35 AM 38.7 °F 33.6 °F 27.5 °F 64% 30.05 in 10.0 mi WNW 6.9 mph - N/A   Clear
5:55 AM 38.5 °F 33.4 °F 27.3 °F 64% 30.06 in 10.0 mi WNW 6.9 mph - N/A   Clear
6:15 AM 40.6 °F 32.3 °F 26.6 °F 57% 30.07 in 10.0 mi NNW 16.1 mph 24.2 mph N/A   Clear
6:35 AM 40.5 °F 31.8 °F 25.9 °F 56% 30.09 in 10.0 mi NNW 17.3 mph - N/A   Clear
6:55 AM 40.1 °F 31.3 °F 25.7 °F 56% 30.10 in 10.0 mi NNW 17.3 mph - N/A   Clear
7:15 AM 39.6 °F 30.3 °F 25.0 °F 56% 30.12 in 10.0 mi NNW 18.4 mph 24.2 mph N/A   Clear
7:35 AM 39.2 °F 29.6 °F 24.8 °F 56% 30.13 in 10.0 mi NNW 19.6 mph 25.3 mph N/A   Clear
7:55 AM 38.1 °F 27.3 °F 24.8 °F 59% 30.15 in 10.0 mi North 23.0 mph 28.8 mph N/A   Clear
8:15 AM 36.7 °F 25.4 °F 23.9 °F 60% 30.17 in 10.0 mi North 23.0 mph 27.6 mph N/A   Clear
8:35 AM 36.7 °F 26.0 °F 23.9 °F 60% 30.18 in 10.0 mi North 20.7 mph 28.8 mph N/A   Clear
8:55 AM 37.0 °F 25.9 °F 23.9 °F 59% 30.20 in 10.0 mi North 23.0 mph 31.1 mph N/A   Clear
9:15 AM 37.0 °F 24.9 °F 22.1 °F 55% 30.23 in 10.0 mi NNW 27.6 mph 34.5 mph N/A   Clear
9:35 AM 36.9 °F 25.1 °F 21.7 °F 54% 30.25 in 10.0 mi NNW 25.3 mph 33.4 mph N/A   Scattered Clouds
9:55 AM 36.7 °F 25.4 °F 20.8 °F 53% 30.26 in 10.0 mi North 23.0 mph 35.7 mph N/A   Scattered Clouds
10:15 AM 37.0 °F 25.1 °F 20.7 °F 52% 30.27 in 10.0 mi North 26.5 mph 35.7 mph N/A   Scattered Clouds
10:35 AM 37.0 °F 25.4 °F 19.9 °F 50% 30.27 in 10.0 mi North 25.3 mph 33.4 mph N/A   Clear
10:55 AM 36.9 °F 25.1 °F 20.7 °F 52% 30.27 in 10.0 mi North 25.3 mph 29.9 mph N/A   Scattered Clouds
11:15 AM 36.5 °F 24.7 °F 21.0 °F 54% 30.27 in 10.0 mi North 25.3 mph 31.1 mph N/A   Clear
11:35 AM 35.8 °F 23.7 °F 19.9 °F 53% 30.27 in 10.0 mi North 25.3 mph 33.4 mph N/A   Scattered Clouds
11:55 AM 35.4 °F 23.7 °F 19.6 °F 53% 30.27 in 10.0 mi North 23.0 mph 27.6 mph N/A   Scattered Clouds
12:15 PM 35.8 °F 24.5 °F 20.1 °F 53% 30.27 in 10.0 mi North 21.9 mph 29.9 mph N/A   Mostly Cloudy
12:35 PM 35.1 °F 23.5 °F 19.9 °F 54% 30.26 in 10.0 mi North 21.9 mph 28.8 mph N/A   Scattered Clouds
12:55 PM 34.5 °F 22.8 °F 18.7 °F 52% 30.26 in 10.0 mi North 21.9 mph 25.3 mph N/A   Scattered Clouds
1:15 PM 34.9 °F 23.9 °F 18.5 °F 51% 30.26 in 10.0 mi North 19.6 mph 26.5 mph N/A   Scattered Clouds
1:35 PM 34.9 °F 23.6 °F 18.9 °F 52% 30.26 in 10.0 mi North 20.7 mph 24.2 mph N/A   Scattered Clouds
1:55 PM 34.5 °F 23.1 °F 18.1 °F 51% 30.25 in 10.0 mi North 20.7 mph 25.3 mph N/A   Scattered Clouds
2:15 PM 34.5 °F 24.5 °F 18.1 °F 51% 30.26 in 10.0 mi North 16.1 mph 23.0 mph N/A   Scattered Clouds
2:35 PM 33.8 °F 23.2 °F 17.2 °F 51% 30.26 in 10.0 mi North 17.3 mph 25.3 mph N/A   Clear
2:50 PM 34.0 °F 22.7 °F 17.6 °F 51% 30.25 in 10.0 mi North 19.6 mph 24.2 mph N/A   Clear
3:15 PM 34.2 °F 24.8 °F 17.6 °F 51% 30.26 in 10.0 mi North 13.8 mph 23.0 mph N/A   Clear
3:35 PM 33.8 °F 22.5 °F 16.9 °F 50% 30.27 in 10.0 mi North 19.6 mph 28.8 mph N/A   Clear
3:55 PM 33.4 °F 22.3 °F 16.7 °F 50% 30.27 in 10.0 mi North 18.4 mph 21.9 mph N/A   Clear
4:15 PM 32.9 °F 22.4 °F 16.3 °F 51% 30.27 in 10.0 mi North 16.1 mph - N/A   Clear
4:35 PM 32.7 °F 22.1 °F 16.7 °F 52% 30.28 in 10.0 mi North 16.1 mph 20.7 mph N/A   Clear
4:55 PM 32.0 °F 21.6 °F 16.9 °F 54% 30.28 in 10.0 mi North 15.0 mph - N/A   Clear
5:15 PM 31.6 °F 22.6 °F 17.1 °F 55% 30.27 in 10.0 mi NNE 11.5 mph - N/A   Clear
5:35 PM 30.6 °F 20.7 °F 18.1 °F 60% 30.28 in 10.0 mi North 12.7 mph - N/A   Clear
5:55 PM 30.2 °F 21.3 °F 17.1 °F 58% 30.27 in 10.0 mi NNE 10.4 mph - N/A   Clear
6:15 PM 29.7 °F 21.3 °F 17.1 °F 59% 30.28 in 10.0 mi NNE 9.2 mph - N/A   Clear
6:35 PM 29.1 °F 20.6 °F 17.2 °F 61% 30.27 in 10.0 mi NNE 9.2 mph - N/A   Clear
6:55 PM 28.4 °F 21.2 °F 18.0 °F 65% 30.27 in 10.0 mi NNE 6.9 mph - N/A   Clear
7:15 PM 28.2 °F 21.0 °F 18.1 °F 66% 30.27 in 10.0 mi NNE 6.9 mph - N/A   Clear
7:35 PM 27.5 °F 20.2 °F 18.0 °F 67% 30.28 in 10.0 mi North 6.9 mph - N/A   Clear
7:55 PM 27.3 °F 19.9 °F 18.9 °F 70% 30.27 in 10.0 mi NNE 6.9 mph - N/A   Clear
8:15 PM 27.1 °F 20.7 °F 18.5 °F 70% 30.26 in 10.0 mi NNE 5.8 mph - N/A   Clear
8:35 PM 26.6 °F 21.2 °F 18.7 °F 72% 30.26 in 10.0 mi NNE 4.6 mph - N/A   Clear
8:55 PM 26.4 °F 20.9 °F 19.2 °F 74% 30.27 in 10.0 mi North 4.6 mph - N/A   Clear
9:15 PM 25.9 °F 20.3 °F 19.2 °F 76% 30.27 in 10.0 mi NNE 4.6 mph - N/A   Clear
9:35 PM 25.5 °F 18.7 °F 18.5 °F 75% 30.27 in 10.0 mi NNE 5.8 mph - N/A   Clear
9:55 PM 26.2 °F 17.1 °F 17.4 °F 69% 30.27 in 10.0 mi NE 9.2 mph - N/A   Clear
10:15 PM 26.1 °F 17.6 °F 18.0 °F 71% 30.26 in 10.0 mi ENE 8.1 mph - N/A   Clear
10:35 PM 25.9 °F 18.2 °F 18.3 °F 73% 30.26 in 10.0 mi NE 6.9 mph - N/A   Clear
10:55 PM 25.7 °F 18.0 °F 16.7 °F 69% 30.26 in 10.0 mi NE 6.9 mph - N/A   Clear
11:15 PM 25.2 °F 19.5 °F 18.3 °F 75% 30.26 in 10.0 mi ENE 4.6 mph - N/A   Clear
11:35 PM 24.6 °F 17.7 °F 17.6 °F 75% 30.25 in 10.0 mi ENE 5.8 mph - N/A   Clear
11:55 PM 23.9 °F 19.5 °F 17.8 °F 77% 30.26 in 10.0 mi East 3.5 mph - N/A   Clear